createdAt,value
2018-09-03T00:01:45.219Z,97.70
2018-09-03T00:04:31.788Z,97.70
2018-09-03T00:07:00.260Z,97.80
2018-09-03T00:09:32.954Z,98.00
2018-09-03T00:12:01.388Z,98.00
2018-09-03T00:14:29.850Z,98.10
2018-09-03T00:16:58.287Z,98.10
2018-09-03T00:19:26.823Z,98.10
2018-09-03T00:21:55.257Z,98.00
2018-09-03T00:24:23.600Z,98.00
2018-09-03T00:26:52.077Z,98.00
2018-09-03T00:29:20.520Z,98.10
2018-09-03T00:32:51.748Z,98.00
2018-09-03T00:35:25.433Z,98.20
2018-09-03T00:38:00.161Z,98.30
2018-09-03T00:40:33.840Z,98.40
2018-09-03T00:43:07.693Z,98.30
2018-09-03T00:45:41.993Z,98.40
2018-09-03T00:48:10.403Z,98.30
2018-09-03T00:50:38.820Z,98.30
2018-09-03T00:53:07.196Z,98.20
2018-09-03T00:55:35.584Z,98.10
2018-09-03T00:58:04.030Z,98.10
2018-09-03T01:00:32.584Z,98.10
2018-09-03T01:03:01.040Z,98.20
2018-09-03T01:05:29.481Z,98.20
2018-09-03T01:07:58.440Z,98.20
2018-09-03T01:10:26.858Z,98.30
2018-09-03T01:12:55.331Z,98.50
2018-09-03T01:15:24.123Z,98.50
2018-09-03T01:17:52.633Z,98.50
2018-09-03T01:20:20.978Z,98.50
2018-09-03T01:22:49.474Z,98.50
2018-09-03T01:25:17.913Z,98.50
2018-09-03T01:27:47.465Z,98.50
2018-09-03T01:30:15.893Z,98.60
2018-09-03T01:32:44.404Z,98.60
2018-09-03T01:35:12.823Z,98.80
2018-09-03T01:37:41.202Z,98.90
2018-09-03T01:40:09.678Z,98.90
2018-09-03T01:42:38.140Z,98.90
2018-09-03T01:45:06.632Z,99.00
2018-09-03T01:47:35.279Z,99.10
2018-09-03T01:50:03.705Z,99.10
2018-09-03T01:52:32.116Z,99.10
2018-09-03T01:55:01.306Z,99.10
2018-09-03T01:57:30.555Z,99.10
2018-09-03T01:59:59.477Z,99.10
2018-09-03T02:02:27.881Z,99.20
2018-09-03T02:04:56.235Z,99.20
2018-09-03T02:07:24.667Z,99.20
2018-09-03T02:09:53.213Z,99.30
2018-09-03T02:12:21.613Z,99.40
2018-09-03T02:14:50.042Z,99.40
2018-09-03T02:17:18.493Z,99.30
2018-09-03T02:19:46.944Z,99.40
2018-09-03T02:22:15.329Z,99.30
2018-09-03T02:24:43.725Z,99.40
2018-09-03T02:27:12.127Z,99.40
2018-09-03T02:29:40.531Z,99.50
2018-09-03T02:32:09.546Z,99.50
2018-09-03T02:34:37.978Z,99.40
2018-09-03T02:37:06.405Z,99.30
2018-09-03T02:39:34.769Z,99.20
2018-09-03T02:42:03.185Z,99.30
2018-09-03T02:44:31.631Z,99.40
2018-09-03T02:47:00.087Z,99.40
2018-09-03T02:49:28.493Z,99.30
2018-09-03T02:51:56.915Z,99.40
2018-09-03T02:54:25.345Z,99.30
2018-09-03T02:56:53.791Z,99.20
2018-09-03T02:59:22.267Z,99.10
2018-09-03T03:01:50.897Z,99.20
2018-09-03T03:04:19.763Z,99.30
2018-09-03T03:06:48.690Z,99.30
2018-09-03T03:09:17.076Z,99.30
2018-09-03T03:11:45.592Z,99.20
2018-09-03T03:14:13.966Z,99.20
2018-09-03T03:16:47.084Z,99.20
2018-09-03T03:19:15.443Z,99.30
2018-09-03T03:21:43.890Z,98.90
2018-09-03T03:24:13.207Z,98.80
2018-09-03T03:26:41.568Z,98.80
2018-09-03T03:29:10.814Z,99.00
2018-09-03T03:31:39.232Z,99.00
2018-09-03T03:34:07.672Z,99.30
2018-09-03T03:36:36.052Z,99.50
2018-09-03T03:39:06.329Z,99.80
2018-09-03T03:41:34.762Z,99.80
2018-09-03T03:44:03.351Z,99.80
2018-09-03T03:46:31.847Z,99.80
2018-09-03T03:49:00.325Z,99.60
2018-09-03T03:51:28.772Z,99.40
2018-09-03T03:53:57.136Z,99.30
2018-09-03T03:56:25.592Z,99.50
2018-09-03T03:58:54.043Z,99.50
2018-09-03T04:01:22.420Z,99.50
2018-09-03T04:03:51.162Z,99.60
2018-09-03T04:06:19.564Z,99.60
2018-09-03T04:08:47.993Z,99.80
2018-09-03T04:11:16.387Z,99.80
2018-09-03T04:13:45.452Z,99.80
2018-09-03T04:16:13.866Z,99.80
2018-09-03T04:18:42.241Z,99.80
2018-09-03T04:21:11.373Z,99.80
2018-09-03T04:23:39.795Z,99.80
2018-09-03T04:26:08.229Z,99.80
2018-09-03T04:28:36.666Z,99.80
2018-09-03T04:31:05.327Z,99.80
2018-09-03T04:33:33.786Z,99.80
2018-09-03T04:36:03.129Z,99.80
2018-09-03T04:38:31.595Z,99.80
2018-09-03T04:41:00.040Z,99.80
2018-09-03T04:43:28.441Z,99.80
2018-09-03T04:45:56.884Z,99.80
2018-09-03T04:48:25.349Z,99.80
2018-09-03T04:50:54.317Z,99.80
2018-09-03T04:53:22.815Z,99.80
2018-09-03T04:55:51.275Z,99.80
2018-09-03T04:58:19.922Z,99.80
2018-09-03T05:00:48.442Z,99.80
2018-09-03T05:03:16.886Z,99.80
2018-09-03T05:05:49.137Z,99.80
2018-09-03T05:08:17.560Z,99.80
2018-09-03T05:10:45.941Z,99.80
2018-09-03T05:13:14.341Z,99.80
2018-09-03T05:15:42.880Z,99.80
2018-09-03T05:18:12.276Z,99.80
2018-09-03T05:20:40.737Z,99.80
2018-09-03T05:23:09.284Z,99.80
2018-09-03T05:25:37.676Z,99.80
2018-09-03T05:28:06.726Z,99.80
2018-09-03T05:30:35.209Z,99.80
2018-09-03T05:33:03.825Z,99.80
2018-09-03T05:35:33.766Z,99.80
2018-09-03T05:38:02.628Z,99.80
2018-09-03T05:40:37.577Z,99.80
2018-09-03T05:43:06.028Z,99.80
2018-09-03T05:45:34.527Z,99.60
2018-09-03T05:48:02.972Z,99.70
2018-09-03T05:50:31.475Z,99.70
2018-09-03T05:53:00.731Z,99.70
2018-09-03T05:55:29.211Z,99.60
2018-09-03T05:57:57.610Z,99.50
2018-09-03T06:00:26.060Z,99.40
2018-09-03T06:02:54.509Z,99.40
2018-09-03T06:05:23.042Z,99.30
2018-09-03T06:07:51.470Z,99.30
2018-09-03T06:10:19.890Z,99.10
2018-09-03T06:12:48.359Z,99.20
2018-09-03T06:15:16.822Z,99.00
2018-09-03T06:17:45.475Z,99.10
2018-09-03T06:20:13.814Z,99.00
2018-09-03T06:22:42.261Z,98.90
2018-09-03T06:25:11.240Z,98.70
2018-09-03T06:27:39.650Z,98.50
2018-09-03T06:30:08.249Z,98.30
2018-09-03T06:32:36.727Z,97.90
2018-09-03T06:35:05.139Z,98.00
2018-09-03T06:37:33.597Z,97.90
2018-09-03T06:40:02.052Z,97.80
2018-09-03T06:42:30.605Z,97.70
2018-09-03T06:44:59.031Z,97.60
2018-09-03T06:47:27.506Z,97.70
2018-09-03T06:49:56.130Z,97.70
2018-09-03T06:52:24.505Z,97.70
2018-09-03T06:54:53.142Z,97.70
2018-09-03T06:57:21.710Z,97.50
2018-09-03T06:59:51.065Z,97.30
2018-09-03T07:02:19.543Z,97.00
2018-09-03T07:04:47.931Z,97.10
2018-09-03T07:07:16.370Z,96.90
2018-09-03T07:09:44.806Z,96.90
2018-09-03T07:12:13.274Z,96.50
2018-09-03T07:14:41.708Z,96.50
2018-09-03T07:17:10.142Z,96.50
2018-09-03T07:19:38.803Z,96.60
2018-09-03T07:22:07.199Z,96.00
2018-09-03T07:24:35.641Z,96.00
2018-09-03T07:27:04.135Z,96.00
2018-09-03T07:29:32.608Z,95.80
2018-09-03T07:32:01.032Z,95.70
2018-09-03T07:34:29.482Z,95.80
2018-09-03T07:36:57.952Z,95.90
2018-09-03T07:39:26.393Z,95.80
2018-09-03T07:41:54.795Z,95.60
2018-09-03T07:44:23.205Z,95.60
2018-09-03T07:46:51.612Z,95.70
2018-09-03T07:49:20.019Z,95.50
2018-09-03T07:51:48.498Z,95.30
2018-09-03T07:54:16.947Z,94.60
2018-09-03T07:56:45.397Z,94.80
2018-09-03T07:59:13.824Z,94.20
2018-09-03T08:01:42.215Z,94.10
2018-09-03T08:04:10.606Z,93.80
2018-09-03T08:06:39.053Z,93.40
2018-09-03T08:09:09.201Z,93.60
2018-09-03T08:11:38.451Z,93.80
2018-09-03T08:14:06.837Z,93.60
2018-09-03T08:16:35.238Z,93.60
2018-09-03T08:19:03.672Z,93.20
2018-09-03T08:21:32.114Z,92.50
2018-09-03T08:24:00.572Z,92.10
2018-09-03T08:26:29.005Z,91.80
2018-09-03T08:28:57.420Z,91.90
2018-09-03T08:31:25.870Z,92.30
2018-09-03T08:33:54.320Z,92.20
2018-09-03T08:36:22.734Z,91.80
2018-09-03T08:38:51.259Z,91.20
2018-09-03T08:41:19.617Z,91.00
2018-09-03T08:43:47.982Z,90.80
2018-09-03T08:46:16.445Z,90.90
2018-09-03T08:48:44.970Z,91.20
2018-09-03T08:51:13.390Z,91.10
2018-09-03T08:53:41.942Z,90.90
2018-09-03T08:56:10.430Z,89.70
2018-09-03T08:58:38.945Z,88.20
2018-09-03T09:01:07.425Z,88.00
2018-09-03T09:03:41.524Z,88.20
2018-09-03T09:06:10.372Z,89.00
2018-09-03T09:08:38.868Z,88.40
2018-09-03T09:11:08.177Z,87.60
2018-09-03T09:13:36.617Z,86.20
2018-09-03T09:16:05.148Z,86.80
2018-09-03T09:18:33.613Z,86.30
2018-09-03T09:21:02.029Z,86.30
2018-09-03T09:23:30.767Z,86.60
2018-09-03T09:25:59.175Z,87.00
2018-09-03T09:28:27.570Z,87.20
2018-09-03T09:30:56.020Z,86.70
2018-09-03T09:33:24.458Z,86.50
2018-09-03T09:35:52.910Z,85.60
2018-09-03T09:38:21.535Z,85.00
2018-09-03T09:40:50.105Z,85.40
2018-09-03T09:43:18.579Z,86.40
2018-09-03T09:45:47.026Z,86.70
2018-09-03T09:48:15.456Z,86.10
2018-09-03T09:50:43.940Z,86.10
2018-09-03T09:53:12.311Z,85.40
2018-09-03T09:55:41.049Z,85.50
2018-09-03T09:58:09.504Z,85.50
2018-09-03T10:00:43.317Z,85.30
2018-09-03T10:03:11.962Z,84.80
2018-09-03T10:05:40.389Z,85.50
2018-09-03T10:08:09.769Z,85.40
2018-09-03T10:10:38.269Z,85.40
2018-09-03T10:13:06.655Z,84.40
2018-09-03T10:15:35.165Z,84.10
2018-09-03T10:18:03.680Z,84.60
2018-09-03T10:20:32.056Z,84.80
2018-09-03T10:23:00.477Z,85.00
2018-09-03T10:25:28.900Z,84.80
2018-09-03T10:27:57.364Z,83.70
2018-09-03T10:30:26.273Z,83.40
2018-09-03T10:32:54.812Z,83.30
2018-09-03T10:35:23.324Z,82.80
2018-09-03T10:37:51.767Z,82.80
2018-09-03T10:40:20.240Z,82.50
2018-09-03T10:42:48.680Z,83.20
2018-09-03T10:45:17.113Z,83.30
2018-09-03T10:47:45.535Z,83.50
2018-09-03T10:50:14.006Z,83.60
2018-09-03T10:52:42.723Z,83.90
2018-09-03T10:55:11.291Z,84.20
2018-09-03T10:57:40.014Z,83.80
2018-09-03T11:00:08.447Z,83.60
2018-09-03T11:02:36.869Z,83.90
2018-09-03T11:05:05.346Z,83.60
2018-09-03T11:07:33.887Z,83.70
2018-09-03T11:10:02.491Z,83.90
2018-09-03T11:12:31.116Z,84.10
2018-09-03T11:14:59.704Z,83.50
2018-09-03T11:17:28.184Z,84.00
2018-09-03T11:19:59.835Z,84.20
2018-09-03T11:22:28.302Z,85.40
2018-09-03T11:24:57.826Z,85.90
2018-09-03T11:27:26.301Z,87.00
2018-09-03T11:29:54.704Z,86.70
2018-09-03T11:32:23.138Z,86.60
2018-09-03T11:34:51.538Z,85.30
2018-09-03T11:37:20.289Z,86.20
2018-09-03T11:39:48.781Z,85.20
2018-09-03T11:42:17.187Z,85.50
2018-09-03T11:44:45.705Z,85.10
2018-09-03T11:47:14.191Z,84.40
2018-09-03T11:49:42.769Z,84.40
2018-09-03T11:52:11.255Z,84.90
2018-09-03T11:54:40.817Z,84.60
2018-09-03T11:57:09.261Z,85.80
2018-09-03T11:59:37.959Z,85.50
2018-09-03T12:02:06.893Z,85.10
2018-09-03T12:04:35.343Z,85.40
2018-09-03T12:07:03.873Z,84.90
2018-09-03T12:09:32.284Z,85.40
2018-09-03T12:12:00.732Z,84.70
2018-09-03T12:14:31.628Z,85.00
2018-09-03T12:17:00.532Z,85.30
2018-09-03T12:19:29.011Z,86.50
2018-09-03T12:21:57.599Z,86.40
2018-09-03T12:24:26.011Z,86.30
2018-09-03T12:26:54.505Z,86.60
2018-09-03T12:29:22.928Z,85.50
2018-09-03T12:31:51.348Z,84.90
2018-09-03T12:34:20.049Z,84.70
2018-09-03T12:36:48.483Z,84.40
2018-09-03T12:39:16.929Z,84.40
2018-09-03T12:41:45.280Z,84.70
2018-09-03T12:44:14.400Z,85.30
2018-09-03T12:46:43.358Z,86.40
2018-09-03T12:49:11.733Z,86.70
2018-09-03T12:51:40.199Z,86.60
2018-09-03T12:54:08.692Z,88.20
2018-09-03T12:56:37.100Z,88.20
2018-09-03T12:59:05.728Z,89.50
2018-09-03T13:01:34.133Z,89.30
2018-09-03T13:04:02.613Z,87.70
2018-09-03T13:06:31.060Z,86.70
2018-09-03T13:08:59.531Z,86.80
2018-09-03T13:11:28.022Z,86.60
2018-09-03T13:13:56.372Z,85.80
2018-09-03T13:16:24.884Z,85.00
2018-09-03T13:18:53.334Z,84.10
2018-09-03T13:21:21.776Z,84.10
2018-09-03T13:23:50.258Z,82.40
2018-09-03T13:26:18.692Z,81.80
2018-09-03T13:28:47.112Z,81.10
2018-09-03T13:31:15.531Z,81.40
2018-09-03T13:33:44.057Z,80.70
2018-09-03T13:36:12.513Z,79.50
2018-09-03T13:38:40.994Z,79.20
2018-09-03T13:41:09.445Z,78.70
2018-09-03T13:43:37.992Z,78.30
2018-09-03T13:46:06.576Z,77.50
2018-09-03T13:48:35.259Z,78.00
2018-09-03T13:51:03.725Z,78.50
2018-09-03T13:53:32.089Z,77.70
2018-09-03T13:56:00.957Z,77.50
2018-09-03T13:58:29.357Z,77.70
2018-09-03T14:00:57.802Z,79.10
2018-09-03T14:03:26.244Z,79.60
2018-09-03T14:05:54.664Z,79.50
2018-09-03T14:08:23.074Z,79.80
2018-09-03T14:10:51.483Z,79.50
2018-09-03T14:13:19.965Z,78.70
2018-09-03T14:15:48.392Z,78.10
2018-09-03T14:18:16.762Z,77.70
2018-09-03T14:20:45.216Z,76.50
2018-09-03T14:23:13.646Z,75.90
2018-09-03T14:25:42.651Z,74.00
2018-09-03T14:28:11.116Z,74.30
2018-09-03T14:30:39.569Z,74.60
2018-09-03T14:33:08.058Z,75.40
2018-09-03T14:35:36.501Z,76.60
2018-09-03T14:38:04.961Z,77.20
2018-09-03T14:40:33.348Z,78.40
2018-09-03T14:43:01.882Z,77.90
2018-09-03T14:45:30.204Z,78.00
2018-09-03T14:47:58.696Z,78.20
2018-09-03T14:50:27.133Z,79.30
2018-09-03T14:52:55.592Z,79.60
2018-09-03T14:55:24.436Z,79.90
2018-09-03T14:57:52.862Z,80.30
2018-09-03T15:00:21.357Z,80.40
2018-09-03T15:02:49.766Z,80.90
2018-09-03T15:05:18.708Z,81.40
2018-09-03T15:07:47.163Z,80.90
2018-09-03T15:10:15.569Z,81.10
2018-09-03T15:12:44.008Z,80.80
2018-09-03T15:15:12.539Z,81.20
2018-09-03T15:17:40.967Z,81.70
2018-09-03T15:20:09.458Z,82.30
2018-09-03T15:22:37.912Z,82.40
2018-09-03T15:25:06.420Z,83.10
2018-09-03T15:27:34.837Z,83.70
2018-09-03T15:30:03.365Z,83.00
2018-09-03T15:32:31.780Z,83.50
2018-09-03T15:35:00.201Z,83.70
2018-09-03T15:37:28.955Z,84.10
2018-09-03T15:39:57.783Z,84.10
2018-09-03T15:42:26.607Z,83.90
2018-09-03T15:44:55.009Z,84.30
2018-09-03T15:47:23.628Z,84.20
2018-09-03T15:49:52.229Z,84.60
2018-09-03T15:52:20.601Z,84.30
2018-09-03T15:54:49.094Z,84.80
2018-09-03T15:57:17.544Z,85.00
2018-09-03T15:59:46.024Z,85.50
2018-09-03T16:02:14.413Z,85.80
2018-09-03T16:04:42.994Z,86.20
2018-09-03T16:07:11.421Z,86.30
2018-09-03T16:09:39.922Z,86.30
2018-09-03T16:12:08.393Z,86.10
2018-09-03T16:14:36.833Z,85.80
2018-09-03T16:17:05.451Z,86.10
2018-09-03T16:19:33.862Z,86.50
2018-09-03T16:22:02.258Z,86.60
2018-09-03T16:24:30.628Z,86.80
2018-09-03T16:26:59.091Z,87.20
2018-09-03T16:29:27.508Z,87.60
2018-09-03T16:31:56.041Z,87.70
2018-09-03T16:34:27.988Z,87.70
2018-09-03T16:36:56.371Z,87.90
2018-09-03T16:39:24.852Z,88.10
2018-09-03T16:41:53.345Z,88.30
2018-09-03T16:44:21.668Z,88.30
2018-09-03T16:46:50.086Z,88.40
2018-09-03T16:49:18.501Z,88.30
2018-09-03T16:51:47.222Z,88.80
2018-09-03T16:54:15.657Z,89.00
2018-09-03T16:56:44.050Z,89.20
2018-09-03T16:59:12.519Z,89.30
2018-09-03T17:01:40.945Z,89.30
2018-09-03T17:04:09.473Z,89.30
2018-09-03T17:06:37.892Z,89.50
2018-09-03T17:09:07.154Z,89.50
2018-09-03T17:11:35.600Z,89.70
2018-09-03T17:14:04.109Z,89.80
2018-09-03T17:16:32.592Z,90.00
2018-09-03T17:19:01.112Z,90.10
2018-09-03T17:21:29.586Z,90.10
2018-09-03T17:23:58.081Z,90.30
2018-09-03T17:26:26.492Z,90.40
2018-09-03T17:28:55.199Z,90.70
2018-09-03T17:31:23.560Z,91.00
2018-09-03T17:33:52.098Z,90.90
2018-09-03T17:36:20.545Z,91.20
2018-09-03T17:38:48.978Z,91.30
2018-09-03T17:41:17.594Z,91.60
2018-09-03T17:43:46.252Z,91.80
2018-09-03T17:46:14.733Z,92.00
2018-09-03T17:48:43.258Z,92.20
2018-09-03T17:51:12.804Z,92.30
2018-09-03T17:53:41.474Z,92.30
2018-09-03T17:56:10.123Z,92.50
2018-09-03T17:58:38.667Z,92.70
2018-09-03T18:01:07.126Z,93.00
2018-09-03T18:03:36.495Z,93.20
2018-09-03T18:06:04.976Z,93.40
2018-09-03T18:08:33.497Z,93.60
2018-09-03T18:11:01.933Z,93.70
2018-09-03T18:13:30.500Z,93.90
2018-09-03T18:15:59.325Z,94.10
2018-09-03T18:18:28.176Z,95.10
2018-09-03T18:20:56.721Z,96.20
2018-09-03T18:23:25.467Z,96.90
2018-09-03T18:25:53.891Z,97.90
2018-09-03T18:28:22.422Z,98.20
2018-09-03T18:30:50.957Z,98.70
2018-09-03T18:33:19.407Z,98.90
2018-09-03T18:35:48.640Z,98.80
2018-09-03T18:38:17.123Z,98.60
2018-09-03T18:40:45.680Z,98.80
2018-09-03T18:43:14.267Z,99.00
2018-09-03T18:45:42.926Z,98.90
2018-09-03T18:48:11.955Z,98.80
2018-09-03T18:50:40.432Z,98.90
2018-09-03T18:53:10.025Z,98.90
2018-09-03T18:55:38.892Z,99.10
2018-09-03T18:58:07.859Z,99.00
2018-09-03T19:00:36.692Z,99.20
2018-09-03T19:03:05.479Z,99.30
2018-09-03T19:05:34.286Z,99.30
2018-09-03T19:08:03.161Z,99.40
2018-09-03T19:10:31.764Z,99.50
2018-09-03T19:13:00.621Z,99.60
2018-09-03T19:15:30.124Z,99.70
2018-09-03T19:17:59.158Z,99.70
2018-09-03T19:20:28.830Z,99.70
2018-09-03T19:22:57.281Z,99.80
2018-09-03T19:25:25.758Z,99.80
2018-09-03T19:27:54.275Z,99.80
2018-09-03T19:30:23.036Z,99.80
2018-09-03T19:32:51.560Z,99.80
2018-09-03T19:35:20.326Z,99.80
2018-09-03T19:37:48.806Z,99.80
2018-09-03T19:40:17.484Z,99.80
2018-09-03T19:42:45.856Z,99.80
2018-09-03T19:45:14.464Z,99.80
2018-09-03T19:47:42.979Z,99.80
2018-09-03T19:50:11.480Z,99.80
2018-09-03T19:52:39.920Z,99.80
2018-09-03T19:55:08.388Z,99.80
2018-09-03T19:57:36.893Z,99.80
2018-09-03T20:00:05.437Z,99.80
2018-09-03T20:02:33.895Z,99.80
2018-09-03T20:05:02.392Z,99.80
2018-09-03T20:07:31.022Z,99.80
2018-09-03T20:09:59.542Z,99.80
2018-09-03T20:12:28.042Z,99.80
2018-09-03T20:14:56.476Z,99.80
2018-09-03T20:17:25.082Z,99.80
2018-09-03T20:19:53.930Z,99.80
2018-09-03T20:22:22.364Z,99.80
2018-09-03T20:24:50.856Z,99.80
2018-09-03T20:27:19.339Z,99.80
2018-09-03T20:29:47.926Z,99.80
2018-09-03T20:32:16.344Z,99.80
2018-09-03T20:34:45.736Z,99.80
2018-09-03T20:37:14.278Z,99.80
2018-09-03T20:39:48.330Z,99.80
2018-09-03T20:42:17.192Z,99.80
2018-09-03T20:44:49.925Z,99.80
2018-09-03T20:47:21.720Z,99.80
2018-09-03T20:49:50.121Z,99.80
2018-09-03T20:52:18.622Z,99.80
2018-09-03T20:54:47.735Z,99.80
2018-09-03T20:57:17.151Z,99.80
2018-09-03T20:59:46.471Z,99.80
2018-09-03T21:02:14.996Z,99.80
2018-09-03T21:04:43.436Z,99.80
2018-09-03T21:07:12.267Z,99.80
2018-09-03T21:09:41.060Z,99.80
2018-09-03T21:12:09.504Z,99.80
2018-09-03T21:14:45.714Z,99.80
2018-09-03T21:17:15.313Z,99.80
2018-09-03T21:19:43.690Z,99.80
2018-09-03T21:22:12.197Z,99.80
2018-09-03T21:24:40.636Z,99.80
2018-09-03T21:27:09.081Z,99.80
2018-09-03T21:29:37.456Z,99.80
2018-09-03T21:32:05.892Z,99.80
2018-09-03T21:34:34.403Z,99.80
2018-09-03T21:37:02.830Z,99.80
2018-09-03T21:39:31.214Z,99.80
2018-09-03T21:41:59.720Z,99.80
2018-09-03T21:44:28.233Z,99.80
2018-09-03T21:46:56.737Z,99.80
2018-09-03T21:49:25.241Z,99.80
2018-09-03T21:51:53.753Z,99.80
2018-09-03T22:02:42.448Z,99.80
2018-09-03T22:05:10.871Z,99.80
2018-09-03T22:07:39.356Z,99.80
2018-09-03T22:10:07.862Z,99.80
2018-09-03T22:12:36.282Z,99.80
2018-09-03T22:15:04.749Z,99.80
2018-09-03T22:17:33.135Z,99.80
2018-09-03T22:20:01.545Z,99.80
2018-09-03T22:22:29.950Z,99.80
2018-09-03T22:24:58.303Z,99.80
2018-09-03T22:27:26.735Z,99.80
2018-09-03T22:29:55.152Z,99.80
2018-09-03T22:32:23.532Z,99.80
2018-09-03T22:34:51.923Z,99.80
2018-09-03T22:37:20.372Z,99.80
2018-09-03T22:39:48.864Z,99.80
2018-09-03T22:42:17.504Z,99.80
2018-09-03T22:44:45.909Z,99.80
2018-09-03T22:47:14.318Z,99.80
2018-09-03T22:49:43.593Z,99.80
2018-09-03T22:52:12.533Z,99.80
2018-09-03T22:54:41.622Z,99.80
2018-09-03T22:57:10.308Z,99.80
2018-09-03T23:02:21.397Z,99.80
2018-09-03T23:04:49.818Z,99.80
2018-09-03T23:07:18.314Z,99.80
2018-09-03T23:09:46.701Z,99.80
2018-09-03T23:12:16.979Z,99.80
2018-09-03T23:14:45.321Z,99.80
2018-09-03T23:17:13.793Z,99.80
2018-09-03T23:19:42.174Z,99.80
2018-09-03T23:22:10.585Z,99.80
2018-09-03T23:24:38.981Z,99.80
2018-09-03T23:27:08.367Z,99.80
2018-09-03T23:29:36.797Z,99.80
2018-09-03T23:32:05.257Z,99.80
2018-09-03T23:34:33.679Z,99.80
2018-09-03T23:37:02.079Z,99.80
2018-09-03T23:39:30.465Z,99.80
2018-09-03T23:41:59.001Z,99.80
2018-09-03T23:44:27.328Z,99.80
2018-09-03T23:46:55.702Z,99.80
2018-09-03T23:49:24.124Z,99.80
2018-09-03T23:51:52.547Z,99.80
2018-09-03T23:54:20.939Z,99.80
2018-09-03T23:56:49.344Z,99.80
2018-09-03T23:59:17.772Z,99.80
